Time;durP1;ratioP1;P1;durP2;ratioP2;P2;SDS_P1;SDS_P2;PMS_P1;PMS_P2;Temp;Humidity;BMP_temperature;BMP_pressure;BME280_temperature;BME280_humidity;BME280_pressure;Samples;Min_cycle;Max_cycle;Signal;HPM_P1;HPM_P2
2023/12/20 00:00:23;;;;;;;4.40;1.20;;;;;;;5.82;100.00;98705.06;109042;1257;59206;-64
2023/12/20 00:03:31;;;;;;;5.10;1.20;;;;;;;5.84;100.00;98701.42;109150;1257;73356;-64
2023/12/20 00:06:30;;;;;;;4.50;1.10;;;;;;;5.86;100.00;98701.27;109124;1257;67851;-64
2023/12/20 00:09:19;;;;;;;5.60;1.40;;;;;;;5.84;100.00;98699.86;109035;1257;72472;-65
2023/12/20 00:12:07;;;;;;;6.20;2.50;;;;;;;5.86;100.00;98707.61;109038;1257;57996;-65
2023/12/20 00:14:55;;;;;;;4.60;1.20;;;;;;;5.84;100.00;98715.30;109150;1257;60303;-65
2023/12/20 00:17:43;;;;;;;4.30;1.00;;;;;;;5.80;100.00;98712.95;109030;1257;71773;-65
2023/12/20 00:20:31;;;;;;;4.00;1.00;;;;;;;5.77;100.00;98721.98;109044;1257;66425;-64
2023/12/20 00:23:19;;;;;;;3.90;1.00;;;;;;;5.69;100.00;98728.50;109103;1257;72219;-64
2023/12/20 00:26:07;;;;;;;3.40;0.90;;;;;;;5.59;100.00;98739.08;109151;1257;58644;-64
2023/12/20 00:28:55;;;;;;;4.00;0.90;;;;;;;5.49;100.00;98745.30;109065;1257;59221;-64
2023/12/20 00:31:43;;;;;;;3.50;1.00;;;;;;;5.44;100.00;98740.09;109016;1257;74076;-65
2023/12/20 00:34:31;;;;;;;3.50;0.80;;;;;;;5.39;100.00;98738.15;109062;1257;67926;-65
2023/12/20 00:37:19;;;;;;;4.80;0.90;;;;;;;5.36;100.00;98737.85;109135;1257;71133;-64
2023/12/20 00:40:08;;;;;;;3.40;0.90;;;;;;;5.32;100.00;98734.70;109124;1257;59302;-65
2023/12/20 00:42:56;;;;;;;4.90;1.00;;;;;;;5.26;100.00;98725.64;109139;1256;58785;-65
2023/12/20 00:45:44;;;;;;;2.60;0.70;;;;;;;5.22;100.00;98723.62;109218;1257;71723;-65
2023/12/20 00:48:31;;;;;;;4.20;0.90;;;;;;;5.18;100.00;98729.75;109129;1257;67859;-67
2023/12/20 00:51:20;;;;;;;4.20;1.00;;;;;;;5.20;100.00;98732.05;109092;1257;71192;-65
2023/12/20 00:54:07;;;;;;;4.40;1.00;;;;;;;5.21;100.00;98739.71;109077;1257;59640;-65
2023/12/20 00:56:55;;;;;;;3.60;0.90;;;;;;;5.19;100.00;98742.34;109115;1257;58211;-66
2023/12/20 00:59:43;;;;;;;3.70;0.90;;;;;;;5.15;100.00;98726.98;109097;1257;73174;-64
2023/12/20 01:02:30;;;;;;;5.20;1.00;;;;;;;5.07;100.00;98722.48;109224;1257;67632;-65
2023/12/20 01:05:19;;;;;;;4.20;1.00;;;;;;;5.02;100.00;98731.51;109060;1257;71653;-66
2023/12/20 01:08:07;;;;;;;5.30;1.10;;;;;;;4.91;100.00;98738.98;109082;1257;57576;-64
2023/12/20 01:10:55;;;;;;;5.00;1.00;;;;;;;4.82;100.00;98731.95;109191;1257;59400;-62
2023/12/20 01:13:43;;;;;;;4.40;1.00;;;;;;;4.72;100.00;98726.35;109076;1257;70713;-61
2023/12/20 01:16:32;;;;;;;4.70;1.10;;;;;;;4.61;100.00;98736.68;109125;1257;68188;-63
2023/12/20 01:19:20;;;;;;;5.50;1.30;;;;;;;4.52;100.00;98733.62;109122;1257;72640;-63
2023/12/20 01:22:08;;;;;;;5.00;1.10;;;;;;;4.45;100.00;98729.20;109191;1257;59570;-63
2023/12/20 01:24:55;;;;;;;5.10;1.10;;;;;;;4.36;100.00;98723.55;108993;1257;60274;-65
2023/12/20 01:27:43;;;;;;;5.80;1.20;;;;;;;4.28;100.00;98721.84;109205;1257;73232;-63
2023/12/20 01:30:32;;;;;;;6.40;1.30;;;;;;;4.22;100.00;98720.17;108910;1257;66435;-63
2023/12/20 01:33:20;;;;;;;9.10;1.60;;;;;;;4.15;100.00;98719.80;109051;1257;73292;-63
2023/12/20 01:36:08;;;;;;;7.00;1.40;;;;;;;4.09;100.00;98727.12;109114;1257;57313;-63
2023/12/20 01:38:56;;;;;;;5.30;1.40;;;;;;;4.00;100.00;98725.94;109051;1257;60081;-63
2023/12/20 01:41:45;;;;;;;6.90;1.20;;;;;;;3.92;100.00;98723.71;107519;1257;1002974;-64
2023/12/20 01:44:33;;;;;;;9.70;2.00;;;;;;;3.85;100.00;98726.70;109228;1256;66635;-64
2023/12/20 01:47:22;;;;;;;8.50;1.40;;;;;;;3.78;100.00;98727.16;109082;1257;71816;-65
2023/12/20 01:50:10;;;;;;;7.70;1.40;;;;;;;3.73;100.00;98717.17;109076;1258;58505;-65
2023/12/20 01:53:01;;;;;;;8.60;1.30;;;;;;;3.68;100.00;98715.08;109041;1257;60181;-65
2023/12/20 01:55:50;;;;;;;12.10;1.60;;;;;;;3.65;100.00;98716.88;109176;1257;72884;-63
2023/12/20 01:58:43;;;;;;;9.30;1.40;;;;;;;3.62;100.00;98713.73;108864;1257;67921;-65
2023/12/20 02:01:32;;;;;;;8.40;1.90;;;;;;;3.60;100.00;98719.17;109085;1257;72756;-63
2023/12/20 02:04:20;;;;;;;9.80;2.10;;;;;;;3.57;100.00;98718.46;109007;1257;57253;-63
2023/12/20 02:07:09;;;;;;;7.80;1.50;;;;;;;3.57;100.00;98711.97;109081;1257;59937;-63
2023/12/20 02:09:57;;;;;;;7.60;1.90;;;;;;;3.57;100.00;98713.02;109026;1257;74132;-64
2023/12/20 02:12:45;;;;;;;9.00;1.50;;;;;;;3.57;100.00;98714.95;109116;1257;67799;-64
2023/12/20 02:15:33;;;;;;;11.50;2.10;;;;;;;3.56;100.00;98705.75;109032;1257;72985;-63
2023/12/20 02:18:21;;;;;;;5.80;1.30;;;;;;;3.53;100.00;98703.27;109186;1257;57340;-63
2023/12/20 02:21:09;;;;;;;11.20;1.60;;;;;;;3.52;100.00;98701.30;109160;1257;61880;-62
2023/12/20 02:23:57;;;;;;;6.70;1.30;;;;;;;3.49;100.00;98707.44;109114;1257;73267;-63
2023/12/20 02:26:45;;;;;;;7.80;1.50;;;;;;;3.44;100.00;98703.97;109187;1257;68199;-63
2023/12/20 02:29:35;;;;;;;8.30;1.40;;;;;;;3.48;100.00;98718.09;109087;1257;73342;-63
2023/12/20 02:32:27;;;;;;;9.70;1.60;;;;;;;3.49;100.00;98719.05;109106;1257;59295;-62
2023/12/20 02:35:15;;;;;;;8.40;1.80;;;;;;;3.47;100.00;98714.08;109170;1256;61249;-63
2023/12/20 02:38:03;;;;;;;8.00;1.30;;;;;;;3.55;100.00;98716.18;108967;1257;73051;-63
2023/12/20 02:40:50;;;;;;;11.20;1.50;;;;;;;3.59;100.00;98706.55;109162;1257;68837;-65
2023/12/20 02:43:38;;;;;;;9.80;1.50;;;;;;;3.65;100.00;98701.09;109105;1257;72554;-63
2023/12/20 02:46:26;;;;;;;7.80;1.50;;;;;;;3.68;100.00;98696.66;109100;1257;57662;-64
2023/12/20 02:49:14;;;;;;;8.80;1.90;;;;;;;3.71;100.00;98690.83;109131;1256;59223;-62
2023/12/20 02:52:02;;;;;;;9.80;1.80;;;;;;;3.74;100.00;98689.73;109143;1257;72594;-65
2023/12/20 02:54:51;;;;;;;8.50;1.30;;;;;;;3.75;100.00;98687.23;109073;1257;67639;-64
2023/12/20 02:57:41;;;;;;;13.80;1.80;;;;;;;3.73;100.00;98685.38;109028;1257;72770;-64
2023/12/20 03:00:30;;;;;;;9.20;1.70;;;;;;;3.72;100.00;98686.05;109103;1257;59476;-63
2023/12/20 03:03:18;;;;;;;11.10;1.80;;;;;;;3.69;100.00;98680.45;109214;1257;59469;-62
2023/12/20 03:06:06;;;;;;;7.80;1.50;;;;;;;3.69;100.00;98672.77;109052;1257;73115;-64
2023/12/20 03:08:53;;;;;;;10.60;2.00;;;;;;;3.70;100.00;98676.70;109119;1257;68634;-62
2023/12/20 03:11:41;;;;;;;8.10;1.30;;;;;;;3.70;100.00;98675.27;109129;1257;72744;-63
2023/12/20 03:14:29;;;;;;;7.50;1.40;;;;;;;3.73;100.00;98668.25;109045;1257;59518;-63
2023/12/20 03:17:18;;;;;;;8.00;1.50;;;;;;;3.75;100.00;98662.45;109049;1257;57815;-62
2023/12/20 03:20:07;;;;;;;7.90;1.70;;;;;;;3.76;100.00;98665.56;109197;1257;71628;-64
2023/12/20 03:22:55;;;;;;;9.10;1.60;;;;;;;3.75;100.00;98669.99;109487;1257;66630;-65
2023/12/20 03:25:43;;;;;;;8.60;1.80;;;;;;;3.72;100.00;98665.15;109467;1257;71318;-64
2023/12/20 03:28:30;;;;;;;7.40;1.70;;;;;;;3.69;100.00;98662.92;109483;1257;57330;-64
2023/12/20 03:31:19;;;;;;;10.80;1.90;;;;;;;3.66;100.00;98661.89;109167;1257;59231;-64
2023/12/20 03:34:07;;;;;;;8.80;1.90;;;;;;;3.65;100.00;98668.60;109046;1257;71454;-63
2023/12/20 03:36:55;;;;;;;11.60;1.70;;;;;;;3.66;100.00;98661.37;109211;1256;68886;-64
2023/12/20 03:39:43;;;;;;;7.90;1.40;;;;;;;3.66;100.00;98667.37;109082;1257;72735;-63
2023/12/20 03:42:31;;;;;;;11.20;1.80;;;;;;;3.61;100.00;98670.67;109209;1257;58139;-66
2023/12/20 03:45:19;;;;;;;8.90;1.50;;;;;;;3.58;100.00;98672.08;109115;1256;61314;-62
2023/12/20 03:48:07;;;;;;;8.30;1.50;;;;;;;3.52;100.00;98662.85;109101;1257;73075;-63
2023/12/20 03:50:55;;;;;;;7.70;1.40;;;;;;;3.46;100.00;98665.27;109068;1256;66693;-62
2023/12/20 03:53:43;;;;;;;7.90;1.40;;;;;;;3.39;100.00;98667.42;109023;1260;71529;-67
2023/12/20 03:56:30;;;;;;;7.80;1.60;;;;;;;3.35;100.00;98665.31;108976;1257;58396;-64
2023/12/20 03:59:18;;;;;;;11.90;2.00;;;;;;;3.30;100.00;98659.82;109144;1257;60445;-64
2023/12/20 04:02:06;;;;;;;10.90;1.80;;;;;;;3.27;100.00;98665.34;109141;1257;71798;-62
2023/12/20 04:04:54;;;;;;;10.10;1.80;;;;;;;3.23;100.00;98660.51;109174;1257;67699;-62
2023/12/20 04:07:42;;;;;;;10.50;1.80;;;;;;;3.22;100.00;98658.14;108924;1257;219559;-63
2023/12/20 04:10:30;;;;;;;9.80;1.50;;;;;;;3.19;100.00;98658.50;109142;1257;60607;-63
2023/12/20 04:13:18;;;;;;;10.00;2.50;;;;;;;3.18;100.00;98654.72;109188;1257;60079;-66
2023/12/20 04:16:06;;;;;;;9.30;1.80;;;;;;;3.16;100.00;98659.08;109166;1257;72967;-63
2023/12/20 04:18:54;;;;;;;7.90;1.50;;;;;;;3.15;100.00;98664.23;109198;1257;67902;-63
2023/12/20 04:21:41;;;;;;;8.40;1.40;;;;;;;3.13;100.00;98666.80;109182;1257;72387;-63
2023/12/20 04:24:29;;;;;;;9.10;1.90;;;;;;;3.10;100.00;98668.63;109060;1257;57354;-63
2023/12/20 04:27:17;;;;;;;6.90;1.40;;;;;;;3.05;100.00;98670.70;109019;1257;58979;-62
2023/12/20 04:30:05;;;;;;;6.70;1.50;;;;;;;3.02;100.00;98671.77;109081;1257;72979;-64
2023/12/20 04:32:53;;;;;;;10.50;1.90;;;;;;;3.00;100.00;98676.13;109220;1257;66950;-66
2023/12/20 04:35:42;;;;;;;9.50;1.90;;;;;;;2.98;100.00;98679.92;109071;1257;73881;-64
2023/12/20 04:38:30;;;;;;;8.90;1.50;;;;;;;2.96;100.00;98680.39;109029;1257;58464;-63
2023/12/20 04:41:18;;;;;;;7.50;1.60;;;;;;;2.94;100.00;98679.66;109070;1257;60250;-64
2023/12/20 04:44:07;;;;;;;7.80;1.50;;;;;;;2.93;100.00;98684.64;109175;1257;71438;-65
2023/12/20 04:46:56;;;;;;;9.40;1.70;;;;;;;2.93;100.00;98676.95;109160;1256;68226;-63
2023/12/20 04:49:44;;;;;;;8.00;1.80;;;;;;;2.91;100.00;98675.50;109094;1257;71163;-64
2023/12/20 04:52:32;;;;;;;11.30;2.40;;;;;;;2.90;100.00;98675.77;109181;1256;57710;-66
2023/12/20 04:55:19;;;;;;;7.60;1.70;;;;;;;2.87;100.00;98680.52;109124;1257;59950;-63
2023/12/20 04:58:08;;;;;;;7.20;1.60;;;;;;;2.84;100.00;98673.52;109096;1257;72189;-63
2023/12/20 05:00:56;;;;;;;10.70;2.00;;;;;;;2.77;100.00;98666.81;109180;1257;66288;-62
2023/12/20 05:03:44;;;;;;;11.70;1.90;;;;;;;2.78;100.00;98673.73;109143;1257;72695;-63
2023/12/20 05:06:31;;;;;;;9.90;2.00;;;;;;;2.77;100.00;98673.85;109099;1257;58629;-65
2023/12/20 05:09:20;;;;;;;9.70;1.90;;;;;;;2.76;100.00;98670.26;109157;1257;60393;-63
2023/12/20 05:12:08;;;;;;;10.30;1.60;;;;;;;2.74;100.00;98670.84;109030;1257;73059;-65
2023/12/20 05:14:56;;;;;;;10.30;1.80;;;;;;;2.72;100.00;98672.58;109037;1257;66050;-63
2023/12/20 05:17:44;;;;;;;10.50;2.50;;;;;;;2.72;100.00;98676.61;109096;1257;72320;-63
2023/12/20 05:20:32;;;;;;;8.40;2.00;;;;;;;2.70;100.00;98677.24;109112;1257;57459;-64
2023/12/20 05:23:20;;;;;;;10.00;2.10;;;;;;;2.71;100.00;98683.48;109070;1257;60076;-64
2023/12/20 05:26:08;;;;;;;10.70;1.50;;;;;;;2.71;100.00;98682.79;109165;1257;72081;-64
2023/12/20 05:28:55;;;;;;;13.40;2.10;;;;;;;2.72;100.00;98683.63;109195;1257;66526;-64
2023/12/20 05:31:43;;;;;;;9.40;2.40;;;;;;;2.71;100.00;98676.64;109079;1257;72852;-63
2023/12/20 05:34:31;;;;;;;9.40;1.70;;;;;;;2.71;100.00;98670.50;109074;1257;58809;-63
2023/12/20 05:37:19;;;;;;;11.10;1.90;;;;;;;2.70;100.00;98661.33;109231;1257;58729;-64
2023/12/20 05:40:11;;;;;;;14.70;2.00;;;;;;;2.68;100.00;98658.62;109209;1257;71515;-63
2023/12/20 05:42:59;;;;;;;11.50;2.00;;;;;;;2.67;100.00;98659.27;109080;1257;67932;-64
2023/12/20 05:45:47;;;;;;;7.60;1.80;;;;;;;2.68;100.00;98658.70;109051;1257;73680;-64
2023/12/20 05:48:35;;;;;;;9.30;1.80;;;;;;;2.68;100.00;98652.84;108994;1257;57594;-63
2023/12/20 05:51:23;;;;;;;10.50;2.40;;;;;;;2.67;100.00;98650.50;109142;1256;58874;-64
2023/12/20 05:54:11;;;;;;;7.50;2.10;;;;;;;2.65;100.00;98655.86;109140;1257;72912;-65
2023/12/20 05:57:00;;;;;;;10.00;2.00;;;;;;;2.63;100.00;98657.41;109165;1257;68655;-65
2023/12/20 05:59:48;;;;;;;13.20;1.80;;;;;;;2.60;100.00;98654.66;108978;1257;70610;-63
2023/12/20 06:02:38;;;;;;;11.00;2.00;;;;;;;2.58;100.00;98658.48;109079;1257;58625;-65
2023/12/20 06:05:26;;;;;;;10.80;1.90;;;;;;;2.55;100.00;98659.67;109112;1257;58799;-66
2023/12/20 06:08:14;;;;;;;8.10;2.00;;;;;;;2.55;100.00;98661.25;109093;1257;73206;-66
2023/12/20 06:11:02;;;;;;;8.50;1.60;;;;;;;2.55;100.00;98653.77;109085;1257;69053;-62
2023/12/20 06:13:52;;;;;;;12.00;1.80;;;;;;;2.55;100.00;98652.73;109026;1257;72476;-65
2023/12/20 06:16:40;;;;;;;8.80;2.20;;;;;;;2.53;100.00;98646.16;108993;1257;57328;-64
2023/12/20 06:19:28;;;;;;;9.60;1.90;;;;;;;2.52;100.00;98643.95;109033;1257;60463;-64
2023/12/20 06:22:16;;;;;;;8.80;1.90;;;;;;;2.51;100.00;98640.89;109068;1259;73217;-63
2023/12/20 06:25:05;;;;;;;8.80;1.90;;;;;;;2.51;100.00;98634.73;109075;1257;68479;-65
2023/12/20 06:27:53;;;;;;;9.80;2.20;;;;;;;2.52;100.00;98635.20;109139;1257;73366;-65
2023/12/20 06:30:41;;;;;;;11.10;1.90;;;;;;;2.52;100.00;98631.04;109167;1257;58800;-64
2023/12/20 06:33:30;;;;;;;10.60;2.00;;;;;;;2.52;100.00;98620.67;109177;1257;60798;-64
2023/12/20 06:36:18;;;;;;;10.60;2.10;;;;;;;2.52;100.00;98618.94;109138;1257;72219;-66
2023/12/20 06:39:06;;;;;;;14.40;2.10;;;;;;;2.53;100.00;98613.27;109015;1257;67921;-65
2023/12/20 06:41:54;;;;;;;10.10;1.80;;;;;;;2.52;100.00;98614.92;108990;1258;72375;-65
2023/12/20 06:44:42;;;;;;;9.50;1.90;;;;;;;2.50;100.00;98610.34;108982;1259;57778;-64
2023/12/20 06:47:29;;;;;;;9.70;2.00;;;;;;;2.44;100.00;98610.36;109112;1257;60076;-64
2023/12/20 06:50:17;;;;;;;8.50;1.80;;;;;;;2.38;100.00;98612.68;109115;1259;72922;-64
2023/12/20 06:53:06;;;;;;;12.20;1.70;;;;;;;2.33;100.00;98617.23;108984;1259;68960;-63
2023/12/20 06:55:56;;;;;;;9.50;2.00;;;;;;;2.27;100.00;98615.34;108905;1264;73381;-63
2023/12/20 06:58:44;;;;;;;11.60;1.90;;;;;;;2.24;100.00;98617.53;109105;1259;57555;-64
2023/12/20 07:01:32;;;;;;;11.60;2.30;;;;;;;2.21;100.00;98620.30;109028;1257;61066;-64
2023/12/20 07:04:21;;;;;;;14.20;2.60;;;;;;;2.20;100.00;98618.76;108904;1258;71546;-67
2023/12/20 07:07:10;;;;;;;13.60;2.20;;;;;;;2.24;100.00;98618.23;109166;1260;68936;-64
2023/12/20 07:09:58;;;;;;;6.80;1.60;;;;;;;2.26;100.00;98617.89;109044;1258;73419;-66
2023/12/20 07:12:46;;;;;;;9.30;2.00;;;;;;;2.27;100.00;98622.39;109063;1260;57438;-67
2023/12/20 07:15:35;;;;;;;8.50;1.80;;;;;;;2.28;100.00;98618.81;109079;1257;59407;-66
2023/12/20 07:18:23;;;;;;;10.60;2.30;;;;;;;2.27;100.00;98617.80;109162;1257;73019;-65
2023/12/20 07:21:12;;;;;;;13.00;2.20;;;;;;;2.26;100.00;98615.98;109092;1257;66391;-63
2023/12/20 07:23:59;;;;;;;11.60;2.10;;;;;;;2.22;100.00;98612.35;109186;1257;73831;-66
2023/12/20 07:26:47;;;;;;;10.10;2.10;;;;;;;2.19;100.00;98605.05;108967;1257;59549;-66
2023/12/20 07:29:35;;;;;;;9.10;2.50;;;;;;;2.16;100.00;98602.11;108998;1257;59148;-64
2023/12/20 07:32:23;;;;;;;8.40;2.20;;;;;;;2.13;100.00;98602.80;109051;1257;73854;-64
2023/12/20 07:35:11;;;;;;;10.50;2.10;;;;;;;2.09;100.00;98600.45;109149;1257;67707;-63
2023/12/20 07:38:00;;;;;;;11.80;2.80;;;;;;;2.05;100.00;98595.45;109179;1257;71922;-64
2023/12/20 07:40:47;;;;;;;9.20;2.30;;;;;;;2.02;100.00;98591.96;109061;1257;57785;-64
2023/12/20 07:43:35;;;;;;;10.40;2.20;;;;;;;2.00;100.00;98588.61;109051;1257;60282;-65
2023/12/20 07:46:23;;;;;;;13.20;2.60;;;;;;;1.98;100.00;98587.66;109112;1257;73946;-67
2023/12/20 07:49:14;;;;;;;11.10;2.10;;;;;;;1.97;100.00;98585.82;109163;1257;66711;-63
2023/12/20 07:52:02;;;;;;;6.90;2.30;;;;;;;1.97;100.00;98588.61;109071;1257;70320;-65
2023/12/20 07:54:50;;;;;;;9.30;2.10;;;;;;;1.97;100.00;98591.78;109096;1257;57512;-63
2023/12/20 07:57:38;;;;;;;11.80;2.10;;;;;;;1.97;100.00;98588.44;108924;1257;60059;-65
2023/12/20 08:00:26;;;;;;;10.20;2.20;;;;;;;1.98;100.00;98586.83;109089;1257;73015;-66
2023/12/20 08:03:14;;;;;;;8.90;2.30;;;;;;;1.99;100.00;98581.65;109129;1257;69476;-65
2023/12/20 08:06:03;;;;;;;10.80;2.40;;;;;;;2.01;100.00;98576.26;109024;1257;73467;-68
2023/12/20 08:08:51;;;;;;;8.90;2.50;;;;;;;2.06;100.00;98573.16;108939;1256;58409;-64
2023/12/20 08:11:49;;;;;;;11.20;2.10;;;;;;;2.12;100.00;98568.08;108986;1257;57942;-65
2023/12/20 08:14:40;;;;;;;11.10;2.90;;;;;;;2.16;100.00;98560.30;108969;1257;72577;-62
2023/12/20 08:17:27;;;;;;;10.00;2.60;;;;;;;2.20;100.00;98552.79;109007;1257;69009;-63
2023/12/20 08:20:18;;;;;;;12.10;2.70;;;;;;;2.28;100.00;98551.77;108893;1263;73528;-66
2023/12/20 08:23:16;;;;;;;10.90;2.30;;;;;;;2.40;100.00;98552.15;109013;1259;57793;-65
2023/12/20 08:26:06;;;;;;;8.30;2.60;;;;;;;2.77;100.00;98550.86;108944;1257;57771;-64
2023/12/20 08:28:54;;;;;;;10.20;2.90;;;;;;;3.64;100.00;98546.08;109037;1257;71594;-66
2023/12/20 08:31:44;;;;;;;11.10;2.80;;;;;;;5.00;99.60;98544.06;108932;1258;67896;-65
2023/12/20 08:34:32;;;;;;;9.90;2.70;;;;;;;6.45;95.31;98536.17;109067;1257;72531;-64
2023/12/20 08:37:20;;;;;;;11.90;2.60;;;;;;;7.57;86.40;98537.92;108984;1259;58606;-63
2023/12/20 08:40:09;;;;;;;9.10;2.40;;;;;;;8.57;80.35;98526.36;109008;1260;60507;-63
2023/12/20 08:42:56;;;;;;;9.20;2.20;;;;;;;9.50;76.50;98524.61;108996;1258;72719;-65
2023/12/20 08:45:44;;;;;;;8.80;2.10;;;;;;;10.30;70.71;98516.55;109033;1257;66555;-64
2023/12/20 08:48:32;;;;;;;10.60;2.30;;;;;;;10.97;68.50;98511.23;109020;1257;71435;-67
2023/12/20 08:51:22;;;;;;;8.20;2.10;;;;;;;11.57;66.52;98506.98;109102;1260;58960;-63
2023/12/20 08:54:12;;;;;;;7.70;2.10;;;;;;;12.18;62.74;98500.13;108289;1259;1003073;-64
2023/12/20 08:57:00;;;;;;;9.20;2.20;;;;;;;11.77;62.34;98496.02;109034;1259;71793;-64
2023/12/20 08:59:48;;;;;;;11.80;2.40;;;;;;;10.56;64.06;98495.85;109206;1261;66697;-65
2023/12/20 09:02:37;;;;;;;10.90;2.50;;;;;;;9.64;66.58;98490.31;109098;1259;72636;-64
2023/12/20 09:05:26;;;;;;;10.10;1.90;;;;;;;8.60;69.85;98491.83;108968;1258;58011;-64
2023/12/20 09:08:14;;;;;;;8.10;2.00;;;;;;;7.83;73.52;98489.20;109039;1258;59807;-66
2023/12/20 09:11:01;;;;;;;8.70;2.30;;;;;;;7.10;76.40;98493.58;108957;1257;74011;-63
2023/12/20 09:13:51;;;;;;;10.10;2.10;;;;;;;6.50;79.65;98492.92;109050;1257;66395;-66
2023/12/20 09:16:38;;;;;;;12.60;2.30;;;;;;;6.10;82.50;98487.51;109090;1257;73914;-68
2023/12/20 09:19:26;;;;;;;9.50;2.30;;;;;;;5.79;84.57;98481.11;109099;1257;57298;-65
2023/12/20 09:22:14;;;;;;;7.50;2.40;;;;;;;5.58;86.09;98479.30;109071;1260;60296;-63
2023/12/20 09:25:02;;;;;;;8.90;2.20;;;;;;;5.38;87.37;98477.95;109095;1260;73087;-67
2023/12/20 09:27:52;;;;;;;9.70;2.20;;;;;;;5.57;87.44;98466.19;108913;1257;66425;-65
2023/12/20 09:30:40;;;;;;;8.90;1.90;;;;;;;5.82;86.95;98466.75;109017;1257;72894;-65
2023/12/20 09:33:28;;;;;;;7.40;2.20;;;;;;;6.32;85.44;98462.37;109076;1257;57263;-68
2023/12/20 09:36:36;;;;;;;10.80;2.20;;;;;;;6.45;84.01;98455.48;109171;1257;58961;-67
2023/12/20 09:39:23;;;;;;;12.80;2.20;;;;;;;6.06;84.62;98453.30;109055;1257;73157;-66
2023/12/20 09:42:17;;;;;;;7.00;1.80;;;;;;;5.75;86.07;98439.66;109086;1256;65730;-65
2023/12/20 09:45:09;;;;;;;10.50;2.20;;;;;;;5.53;87.37;98430.42;109072;1257;71518;-64
2023/12/20 09:47:58;;;;;;;13.00;2.70;;;;;;;5.34;88.70;98431.81;109030;1257;58838;-66
2023/12/20 09:50:47;;;;;;;8.60;2.20;;;;;;;5.37;91.22;98429.27;109098;1257;59108;-64
2023/12/20 09:53:42;;;;;;;7.90;2.20;;;;;;;5.46;89.84;98424.16;109037;1257;72897;-67
2023/12/20 09:56:30;;;;;;;9.70;1.80;;;;;;;5.57;89.25;98411.14;108995;1257;67908;-64
2023/12/20 09:59:18;;;;;;;9.00;2.00;;;;;;;5.62;89.19;98408.59;109051;1257;70471;-64
2023/12/20 10:02:14;;;;;;;10.30;2.50;;;;;;;5.60;88.80;98406.13;108988;1257;57410;-65
2023/12/20 10:05:04;;;;;;;11.10;2.30;;;;;;;5.51;89.34;98400.85;109186;1257;58699;-65
2023/12/20 10:07:51;;;;;;;9.30;2.10;;;;;;;5.33;89.75;98396.56;108978;1257;74065;-66
2023/12/20 10:10:40;;;;;;;8.40;2.00;;;;;;;5.21;90.83;98401.06;109139;1257;67994;-62
2023/12/20 10:13:40;;;;;;;9.30;1.90;;;;;;;4.98;91.36;98389.71;109083;1257;71215;-65
2023/12/20 10:16:30;;;;;;;8.10;1.90;;;;;;;4.84;92.28;98387.73;109164;1257;57714;-65
2023/12/20 10:19:18;;;;;;;8.20;2.00;;;;;;;4.72;93.20;98380.21;109225;1257;60297;-64
2023/12/20 10:22:06;;;;;;;7.60;1.90;;;;;;;4.51;93.97;98373.80;109120;1257;71397;-67
2023/12/20 10:24:56;;;;;;;10.20;2.10;;;;;;;4.36;94.99;98369.73;109155;1257;68141;-64
2023/12/20 10:27:44;;;;;;;7.60;1.80;;;;;;;4.26;95.78;98361.50;109111;1257;71655;-66
2023/12/20 10:30:31;;;;;;;9.30;2.00;;;;;;;4.19;96.63;98361.05;109095;1262;59619;-65
2023/12/20 10:33:32;;;;;;;7.70;2.20;;;;;;;4.14;97.33;98357.94;109095;1258;60422;-64
2023/12/20 10:36:21;;;;;;;8.70;2.30;;;;;;;4.07;98.18;98350.70;109144;1257;72761;-64
2023/12/20 10:39:11;;;;;;;7.90;2.40;;;;;;;4.07;98.70;98349.33;109122;1257;68140;-65
2023/12/20 10:41:59;;;;;;;11.10;2.50;;;;;;;4.00;99.31;98349.05;109011;1257;73292;-65
2023/12/20 10:44:47;;;;;;;9.20;2.30;;;;;;;3.96;99.80;98344.23;109140;1257;58936;-63
2023/12/20 10:47:36;;;;;;;11.20;2.50;;;;;;;3.91;100.00;98335.11;109167;1257;60298;-64
2023/12/20 10:50:29;;;;;;;9.80;2.60;;;;;;;3.91;100.00;98320.56;109091;1262;71443;-65
2023/12/20 10:53:16;;;;;;;7.30;2.40;;;;;;;3.92;100.00;98314.70;109096;1257;67573;-66
2023/12/20 10:56:08;;;;;;;13.10;2.90;;;;;;;3.96;100.00;98315.25;109182;1257;73693;-65
2023/12/20 10:59:01;;;;;;;12.30;3.20;;;;;;;3.95;100.00;98305.70;109085;1258;60051;-64
2023/12/20 11:01:50;;;;;;;8.70;2.80;;;;;;;3.96;100.00;98300.01;108927;1260;60355;-67
2023/12/20 11:04:44;;;;;;;12.40;3.50;;;;;;;3.95;100.00;98293.58;108964;1260;73090;-62
2023/12/20 11:07:50;;;;;;;8.80;2.60;;;;;;;3.99;100.00;98284.30;108845;1260;67742;-68
2023/12/20 11:11:06;;;;;;;10.90;2.60;;;;;;;3.99;100.00;98275.38;108847;1260;72724;-66
2023/12/20 11:14:02;;;;;;;11.90;3.20;;;;;;;3.98;100.00;98277.17;108833;1260;57396;-63
2023/12/20 11:16:51;;;;;;;9.20;2.40;;;;;;;4.01;100.00;98275.94;108710;1263;60014;-63
2023/12/20 11:19:57;;;;;;;10.10;3.30;;;;;;;3.99;100.00;98272.20;108794;1260;72785;-65
2023/12/20 11:22:56;;;;;;;9.10;2.60;;;;;;;4.02;100.00;98270.22;108846;1260;67627;-64
2023/12/20 11:25:51;;;;;;;10.30;3.30;;;;;;;4.06;100.00;98264.10;108856;1261;73484;-64
2023/12/20 11:28:39;;;;;;;7.60;2.70;;;;;;;4.10;100.00;98255.21;108815;1260;58273;-63
2023/12/20 11:31:27;;;;;;;9.00;3.30;;;;;;;4.11;100.00;98249.55;108856;1260;60191;-64
2023/12/20 11:34:17;;;;;;;8.90;2.60;;;;;;;4.14;100.00;98245.39;108907;1261;72979;-64
2023/12/20 11:37:05;;;;;;;10.20;3.00;;;;;;;4.20;100.00;98240.52;108886;1261;66933;-63
2023/12/20 11:39:56;;;;;;;10.80;3.30;;;;;;;4.23;100.00;98227.85;108889;1265;72750;-67
2023/12/20 11:42:49;;;;;;;11.10;3.00;;;;;;;4.27;100.00;98216.63;108761;1261;57341;-65
2023/12/20 11:45:49;;;;;;;9.80;2.70;;;;;;;4.29;100.00;98210.16;108771;1259;59053;-63
2023/12/20 11:48:44;;;;;;;7.40;2.40;;;;;;;4.30;100.00;98208.70;108997;1257;73062;-65
2023/12/20 11:51:32;;;;;;;10.60;2.70;;;;;;;4.26;100.00;98198.65;108979;1257;67871;-63
2023/12/20 11:54:20;;;;;;;9.30;2.10;;;;;;;4.28;100.00;98201.78;109102;1257;72719;-65
2023/12/20 11:57:07;;;;;;;7.00;2.80;;;;;;;4.23;100.00;98189.70;109074;1257;58909;-64
2023/12/20 11:59:56;;;;;;;8.80;2.50;;;;;;;4.18;100.00;98187.32;109087;1257;59247;-68
2023/12/20 12:02:43;;;;;;;7.80;2.60;;;;;;;4.17;100.00;98177.60;109139;1257;73101;-65
2023/12/20 12:05:35;;;;;;;7.10;2.50;;;;;;;4.21;100.00;98175.69;109051;1258;69406;-63
2023/12/20 12:08:24;;;;;;;6.80;2.30;;;;;;;4.19;100.00;98170.88;109150;1257;72757;-65
2023/12/20 12:11:12;;;;;;;8.20;2.40;;;;;;;4.17;100.00;98164.80;108982;1257;58306;-64
2023/12/20 12:14:00;;;;;;;7.00;2.60;;;;;;;4.12;100.00;98153.43;109089;1257;60260;-64
2023/12/20 12:16:50;;;;;;;7.80;2.30;;;;;;;4.16;100.00;98151.85;109074;1257;70475;-62
2023/12/20 12:19:39;;;;;;;9.40;2.50;;;;;;;4.15;100.00;98148.94;109132;1257;67836;-66
2023/12/20 12:22:27;;;;;;;8.70;3.00;;;;;;;4.14;100.00;98154.29;109069;1258;70487;-64
2023/12/20 12:25:15;;;;;;;8.20;2.30;;;;;;;4.12;100.00;98151.50;108959;1259;58500;-69
2023/12/20 12:28:04;;;;;;;6.40;1.80;;;;;;;4.08;100.00;98149.70;108985;1258;59957;-67
2023/12/20 12:30:59;;;;;;;8.90;2.50;;;;;;;4.02;100.00;98151.08;109007;1258;73129;-65
2023/12/20 12:33:47;;;;;;;7.50;2.20;;;;;;;3.99;100.00;98147.58;108918;1258;66407;-66
2023/12/20 12:36:35;;;;;;;7.30;2.30;;;;;;;3.97;100.00;98143.92;108963;1259;73709;-67
2023/12/20 12:39:27;;;;;;;8.70;2.10;;;;;;;3.98;100.00;98142.11;109039;1257;58900;-68
2023/12/20 12:42:14;;;;;;;6.80;2.30;;;;;;;3.99;100.00;98139.86;108882;1260;58738;-65
2023/12/20 12:45:03;;;;;;;8.00;2.40;;;;;;;3.99;100.00;98130.24;109032;1257;71465;-67
2023/12/20 12:47:51;;;;;;;7.80;2.50;;;;;;;3.97;100.00;98132.47;109079;1257;66474;-67
2023/12/20 12:50:38;;;;;;;8.20;2.50;;;;;;;3.95;100.00;98128.48;109018;1257;73572;-67
2023/12/20 12:53:29;;;;;;;7.40;2.40;;;;;;;3.91;100.00;98125.07;109001;1258;58933;-67
2023/12/20 12:56:17;;;;;;;7.20;2.20;;;;;;;3.88;100.00;98122.51;109053;1257;60928;-66
2023/12/20 12:59:05;;;;;;;6.60;1.70;;;;;;;3.87;100.00;98109.80;109109;1257;72760;-67
2023/12/20 13:01:53;;;;;;;6.20;1.90;;;;;;;3.89;100.00;98114.89;109018;1259;67055;-66
2023/12/20 13:04:42;;;;;;;6.20;2.00;;;;;;;3.89;100.00;98110.65;109092;1257;72769;-69